| time (UTC) | temp C | wind direction | speed KPH | gust KPH | rain 1hr cm | rain 24hr cm | rain mn cm | humidity % | barometer mb |
| 20260902030042 | 13 | 208 | 9.7 | 17.7 | 0.00 | 0.03 | 0.00 | 94 | 1012.6 |
| 20260902024547 | 13 | 215 | 6.4 | 16.1 | 0.00 | 0.03 | 0.00 | 94 | 1012.8 |
| 20260902023046 | 13 | 225 | 9.7 | 14.5 | 0.00 | 0.03 | 0.00 | 94 | 1012.9 |
| 20260902021547 | 13 | 210 | 11.3 | 16.1 | 0.00 | 0.03 | 0.00 | 94 | 1012.9 |
| 20260902020038 | 13 | 217 | 6.4 | 17.7 | 0.00 | 0.03 | 0.00 | 93 | 1012.9 |
| 20260902014541 | 13 | 209 | 12.9 | 19.3 | 0.00 | 0.03 | 0.00 | 94 | 1012.9 |
| 20260902013037 | 13 | 231 | 11.3 | 19.3 | 0.00 | 0.03 | 0.00 | 94 | 1013.0 |
| 20260902011535 | 13 | 219 | 11.3 | 22.5 | 0.00 | 0.03 | 0.00 | 93 | 1013.0 |
| 20260902010032 | 12 | 219 | 9.7 | 17.7 | 0.00 | 0.03 | 0.00 | 93 | 1013.1 |
| 20260902004531 | 12 | 246 | 9.7 | 19.3 | 0.00 | 0.03 | 0.00 | 93 | 1013.1 |
| 20260902003032 | 12 | 229 | 9.7 | 17.7 | 0.00 | 0.03 | 0.00 | 93 | 1013.1 |
| 20260902001528 | 12 | 236 | 11.3 | 17.7 | 0.00 | 0.03 | 0.00 | 93 | 1013.2 |
| 20260902000025 | 12 | 240 | 9.7 | 17.7 | 0.00 | 0.03 | 0.00 | 93 | 1013.2 |
| 20260901234523 | 12 | 232 | 11.3 | 16.1 | 0.00 | 0.05 | 0.00 | 92 | 1013.3 |
| 20260901233043 | 12 | 222 | 11.3 | 17.7 | 0.00 | 0.05 | 0.00 | 92 | 1013.3 |
| 20260901231518 | 12 | 215 | 4.8 | 8.0 | 0.00 | 0.05 | 0.00 | 92 | 1013.4 |
| 20260901230030 | 12 | 220 | 6.4 | 14.5 | 0.00 | 0.05 | 0.00 | 92 | 1013.6 |
| 20260901224515 | 12 | 228 | 1.6 | 11.3 | 0.00 | 0.05 | 0.00 | 92 | 1013.7 |
| 20260901223014 | 12 | 227 | 4.8 | 14.5 | 0.00 | 0.05 | 0.00 | 92 | 1013.8 |
| 20260901221511 | 12 | 251 | 4.8 | 11.3 | 0.00 | 0.05 | 0.00 | 91 | 1013.8 |
| 20260901220012 | 12 | 233 | 6.4 | 12.9 | 0.00 | 0.05 | 0.05 | 91 | 1013.9 |
| 20260901214519 | 13 | 242 | 6.4 | 11.3 | 0.00 | 0.05 | 0.05 | 91 | 1013.8 |
| 20260901213008 | 13 | 253 | 4.8 | 12.9 | 0.00 | 0.05 | 0.05 | 90 | 1013.6 |
| 20260901211508 | 13 | 262 | 8.0 | 16.1 | 0.00 | 0.05 | 0.05 | 90 | 1013.7 |
| 20260901210008 | 13 | 283 | 12.9 | 20.9 | 0.00 | 0.05 | 0.05 | 90 | 1013.7 |
| 20260901204507 | 13 | 277 | 11.3 | 24.1 | 0.00 | 0.05 | 0.05 | 89 | 1013.7 |
| 20260901203005 | 14 | 278 | 17.7 | 25.7 | 0.00 | 0.05 | 0.05 | 89 | 1013.7 |
| 20260901201504 | 14 | 273 | 14.5 | 24.1 | 0.00 | 0.05 | 0.05 | 89 | 1013.7 |
| 20260901200001 | 15 | 290 | 11.3 | 16.1 | 0.00 | 0.05 | 0.05 | 89 | 1013.4 |
| 20260901194500 | 15 | 286 | 11.3 | 25.7 | 0.00 | 0.05 | 0.05 | 89 | 1013.3 |
| 20260901193159 | 15 | 274 | 16.1 | 24.1 | 0.00 | 0.05 | 0.05 | 89 | 1013.3 |
| 20260901191617 | 15 | 260 | 8.0 | 14.5 | 0.00 | 0.05 | 0.05 | 88 | 1013.1 |
| 20260901190057 | 15 | 260 | 6.4 | 12.9 | 0.00 | 0.05 | 0.05 | 88 | 1013.1 |
| 20260901184555 | 15 | 264 | 8.0 | 16.1 | 0.00 | 0.05 | 0.05 | 87 | 1012.9 |
| 20260901183100 | 15 | 282 | 8.0 | 14.5 | 0.00 | 0.05 | 0.05 | 87 | 1013.0 |
| 20260901181552 | 16 | 286 | 9.7 | 16.1 | 0.00 | 0.05 | 0.05 | 85 | 1012.9 |
| 20260901180050 | 16 | 292 | 11.3 | 19.3 | 0.00 | 0.05 | 0.05 | 84 | 1012.7 |
| 20260901174554 | 16 | 301 | 14.5 | 24.1 | 0.00 | 0.05 | 0.05 | 83 | 1012.8 |
| 20260901173049 | 17 | 288 | 14.5 | 24.1 | 0.00 | 0.05 | 0.05 | 82 | 1012.8 |
| 20260901171548 | 17 | 290 | 12.9 | 25.7 | 0.00 | 0.05 | 0.05 | 82 | 1012.6 |
| 20260901170043 | 17 | 302 | 14.5 | 24.1 | 0.00 | 0.05 | 0.05 | 82 | 1012.4 |
| 20260901164551 | 17 | 295 | 14.5 | 29.0 | 0.00 | 0.05 | 0.05 | 82 | 1012.4 |
| 20260901163041 | 17 | 294 | 16.1 | 22.5 | 0.00 | 0.05 | 0.05 | 81 | 1012.3 |
| 20260901161548 | 17 | 296 | 16.1 | 25.7 | 0.00 | 0.05 | 0.05 | 81 | 1012.2 |
| 20260901160040 | 17 | 299 | 19.3 | 30.6 | 0.00 | 0.05 | 0.05 | 79 | 1012.2 |
| 20260901154541 | 17 | 275 | 17.7 | 33.8 | 0.00 | 0.05 | 0.05 | 78 | 1012.1 |
| 20260901153044 | 18 | 290 | 19.3 | 29.0 | 0.00 | 0.05 | 0.05 | 77 | 1011.9 |
| 20260901151536 | 19 | 309 | 24.1 | 33.8 | 0.00 | 0.05 | 0.05 | 74 | 1011.9 |
| 20260901150036 | 18 | 295 | 20.9 | 27.4 | 0.00 | 0.05 | 0.05 | 78 | 1011.8 |
| 20260901144534 | 18 | 311 | 17.7 | 24.1 | 0.00 | 0.08 | 0.05 | 78 | 1011.8 |
| 20260901143034 | 18 | 309 | 17.7 | 27.4 | 0.00 | 0.08 | 0.05 | 79 | 1011.7 |
| 20260901141536 | 20 | 313 | 16.1 | 27.4 | 0.00 | 0.08 | 0.05 | 79 | 1011.7 |
| 20260901140032 | 20 | 300 | 14.5 | 25.7 | 0.00 | 0.08 | 0.05 | 76 | 1011.5 |
| 20260901134532 | 19 | 268 | 14.5 | 32.2 | 0.00 | 0.08 | 0.05 | 79 | 1011.7 |
| 20260901133031 | 19 | 322 | 19.3 | 29.0 | 0.00 | 0.08 | 0.05 | 77 | 1011.6 |
| 20260901131530 | 20 | 259 | 16.1 | 29.0 | 0.03 | 0.08 | 0.05 | 76 | 1011.3 |
| 20260901130029 | 20 | 283 | 22.5 | 30.6 | 0.03 | 0.08 | 0.05 | 75 | 1011.3 |
| 20260901124528 | 20 | 286 | 14.5 | 24.1 | 0.03 | 0.08 | 0.05 | 75 | 1011.3 |
| 20260901123035 | 19 | 315 | 16.1 | 29.0 | 0.03 | 0.08 | 0.05 | 78 | 1011.2 |
| 20260901121525 | 20 | 301 | 14.5 | 24.1 | 0.00 | 0.05 | 0.03 | 77 | 1011.2 |
| 20260901120024 | 19 | 333 | 17.7 | 25.7 | 0.00 | 0.05 | 0.03 | 80 | 1011.3 |
| 20260901114523 | 20 | 286 | 19.3 | 29.0 | 0.00 | 0.23 | 0.03 | 79 | 1011.1 |
| 20260901113023 | 20 | 284 | 17.7 | 24.1 | 0.00 | 0.23 | 0.03 | 76 | 1011.1 |
| 20260901111521 | 20 | 277 | 14.5 | 25.7 | 0.00 | 0.23 | 0.03 | 80 | 1011.0 |
| 20260901110021 | 20 | 271 | 19.3 | 29.0 | 0.00 | 0.23 | 0.03 | 80 | 1010.9 |
| 20260901104521 | 19 | 244 | 12.9 | 22.5 | 0.00 | 0.33 | 0.03 | 82 | 1010.9 |
| 20260901103012 | 18 | 276 | 19.3 | 29.0 | 0.00 | 0.33 | 0.03 | 84 | 1010.9 |
| 20260901101508 | 17 | 263 | 14.5 | 25.7 | 0.00 | 0.33 | 0.03 | 85 | 1010.8 |
| 20260901100005 | 17 | 286 | 14.5 | 24.1 | 0.00 | 0.33 | 0.03 | 86 | 1010.6 |
| 20260901094506 | 17 | 286 | 12.9 | 24.1 | 0.00 | 0.33 | 0.03 | 88 | 1010.6 |
| 20260901093005 | 17 | 293 | 16.1 | 24.1 | 0.00 | 0.33 | 0.03 | 88 | 1010.6 |
| 20260901091505 | 17 | 278 | 12.9 | 24.1 | 0.00 | 0.33 | 0.03 | 87 | 1010.4 |
| 20260901090100 | 17 | 270 | 14.5 | 22.5 | 0.00 | 0.33 | 0.03 | 90 | 1010.3 |
| 20260901084601 | 16 | 273 | 12.9 | 24.1 | 0.00 | 0.33 | 0.03 | 92 | 1010.4 |
| 20260901083057 | 16 | 274 | 12.9 | 22.5 | 0.00 | 0.33 | 0.03 | 92 | 1010.5 |
| 20260901081555 | 16 | 304 | 11.3 | 17.7 | 0.00 | 0.33 | 0.03 | 94 | 1010.1 |
| 20260901080100 | 16 | 283 | 4.8 | 16.1 | 0.00 | 0.33 | 0.03 | 95 | 1010.0 |
| 20260901074601 | 15 | 291 | 8.0 | 16.1 | 0.00 | 0.33 | 0.03 | 95 | 1009.9 |
| 20260901073050 | 15 | 292 | 11.3 | 17.7 | 0.00 | 0.33 | 0.03 | 96 | 1009.9 |
| 20260901071550 | 15 | 278 | 9.7 | 20.9 | 0.00 | 0.33 | 0.03 | 96 | 1009.8 |
| 20260901070048 | 15 | 267 | 14.5 | 19.3 | 0.00 | 0.33 | 0.03 | 96 | 1009.5 |
| 20260901064546 | 16 | 265 | 11.3 | 19.3 | 0.00 | 0.33 | 0.03 | 96 | 1009.3 |
| 20260901063046 | 15 | 274 | 11.3 | 16.1 | 0.00 | 0.33 | 0.03 | 96 | 1009.2 |
| 20260901061542 | 15 | 272 | 8.0 | 14.5 | 0.00 | 0.33 | 0.03 | 96 | 1009.3 |
| 20260901060037 | 14 | 261 | 8.0 | 14.5 | 0.00 | 0.33 | 0.03 | 96 | 1009.2 |
| 20260901054536 | 14 | 272 | 11.3 | 17.7 | 0.00 | 0.33 | 0.03 | 96 | 1009.2 |
| 20260901053042 | 14 | 269 | 8.0 | 16.1 | 0.00 | 0.33 | 0.03 | 96 | 1009.1 |
| 20260901051549 | 14 | 269 | 9.7 | 16.1 | 0.00 | 0.33 | 0.03 | 96 | 1009.1 |
| 20260901050029 | 14 | 275 | 11.3 | 16.1 | 0.00 | 0.33 | 0.03 | 96 | 1009.0 |
| 20260901044533 | 14 | 264 | 12.9 | 20.9 | 0.00 | 0.33 | 0.03 | 96 | 1008.9 |
| 20260901043030 | 14 | 277 | 11.3 | 17.7 | 0.00 | 0.33 | 0.03 | 96 | 1008.6 |
| 20260901041545 | 13 | 288 | 9.7 | 14.5 | 0.00 | 0.33 | 0.03 | 96 | 1008.6 |
| 20260901040022 | 13 | 271 | 6.4 | 12.9 | 0.00 | 0.33 | 0.03 | 96 | 1008.5 |
| 20260901034522 | 13 | 272 | 6.4 | 14.5 | 0.00 | 0.33 | 0.03 | 96 | 1008.5 |
| 20260901033021 | 13 | 275 | 9.7 | 16.1 | 0.00 | 0.33 | 0.03 | 96 | 1008.3 |
| 20260901031521 | 13 | 259 | 11.3 | 16.1 | 0.00 | 0.33 | 0.03 | 96 | 1008.3 |